KKP58 YBBN-YBMK
Flight info
| Callsign | KKP58 |
|---|---|
| Flight time | 1h 10m |
| Altitude | 32000 |
| Route | BN Q67 RUNLA Q493 EMSUP/N0417F200 V308 MK |
| Aircraft | A320/M-SDE3FGHIRWYZ/LB1 |
Departure
| Time | 2026-04-18 03:19 |
|---|---|
| Airport | Brisbane International Airport (YBBN) |
Arrival
| Time | 2026-04-18 04:29 |
|---|---|
| Airport | Mackay Airport (YBMK) |
| Time | Latitude | Longitude | Altitude | Speed | Heading |
|---|---|---|---|---|---|
| 2026-04-18 02:44 | -27.38714 | 153.11992 | 18 ft | 0 kts | 336° |
| 2026-04-18 03:06 | -27.38715 | 153.11992 | 18 ft | 1 kts | 336° |
| 2026-04-18 03:06 | -27.38728 | 153.11999 | 18 ft | 3 kts | 339° |
| 2026-04-18 03:06 | -27.38747 | 153.12007 | 18 ft | 3 kts | 333° |
| 2026-04-18 03:07 | -27.38761 | 153.12016 | 19 ft | 3 kts | 283° |
| 2026-04-18 03:07 | -27.38761 | 153.12032 | 19 ft | 3 kts | 262° |
| 2026-04-18 03:07 | -27.38757 | 153.12055 | 18 ft | 3 kts | 258° |
| 2026-04-18 03:07 | -27.38753 | 153.12077 | 18 ft | 3 kts | 259° |
| 2026-04-18 03:08 | -27.38750 | 153.12099 | 18 ft | 3 kts | 272° |
| 2026-04-18 03:08 | -27.38752 | 153.12114 | 19 ft | 1 kts | 289° |
| 2026-04-18 03:08 | -27.38758 | 153.12131 | 19 ft | 3 kts | 297° |
| 2026-04-18 03:08 | -27.38768 | 153.12150 | 21 ft | 3 kts | 313° |
| 2026-04-18 03:09 | -27.38783 | 153.12165 | 18 ft | 3 kts | 333° |
| 2026-04-18 03:09 | -27.38802 | 153.12172 | 20 ft | 3 kts | 356° |
| 2026-04-18 03:09 | -27.38818 | 153.12171 | 20 ft | 1 kts | 21° |
| 2026-04-18 03:09 | -27.38821 | 153.12170 | 19 ft | 0 kts | 22° |
| 2026-04-18 03:11 | -27.38813 | 153.12174 | 19 ft | 6 kts | 25° |
| 2026-04-18 03:11 | -27.38792 | 153.12250 | 18 ft | 14 kts | 109° |
| 2026-04-18 03:12 | -27.38744 | 153.12336 | 19 ft | 15 kts | 25° |
| 2026-04-18 03:12 | -27.38644 | 153.12391 | 19 ft | 17 kts | 27° |
| 2026-04-18 03:12 | -27.38532 | 153.12454 | 13 ft | 19 kts | 27° |
| 2026-04-18 03:12 | -27.38408 | 153.12525 | 18 ft | 21 kts | 26° |
| 2026-04-18 03:13 | -27.38274 | 153.12602 | 20 ft | 22 kts | 27° |
| 2026-04-18 03:13 | -27.38227 | 153.12630 | 18 ft | 23 kts | 28° |
| 2026-04-18 03:14 | -27.37795 | 153.12635 | 18 ft | 12 kts | 300° |
| 2026-04-18 03:14 | -27.37736 | 153.12513 | 18 ft | 14 kts | 296° |
| 2026-04-18 03:14 | -27.37678 | 153.12385 | 18 ft | 22 kts | 297° |
| 2026-04-18 03:15 | -27.37605 | 153.12227 | 18 ft | 23 kts | 297° |
| 2026-04-18 03:15 | -27.37531 | 153.12061 | 18 ft | 25 kts | 294° |
| 2026-04-18 03:15 | -27.37450 | 153.11883 | 18 ft | 26 kts | 296° |
| 2026-04-18 03:15 | -27.37362 | 153.11695 | 18 ft | 28 kts | 298° |
| 2026-04-18 03:16 | -27.37224 | 153.11622 | 18 ft | 26 kts | 31° |
| 2026-04-18 03:16 | -27.37071 | 153.11713 | 18 ft | 25 kts | 28° |
| 2026-04-18 03:16 | -27.36912 | 153.11809 | 17 ft | 27 kts | 26° |
| 2026-04-18 03:16 | -27.36743 | 153.11904 | 18 ft | 28 kts | 27° |
| 2026-04-18 03:17 | -27.36568 | 153.12002 | 18 ft | 28 kts | 27° |
| 2026-04-18 03:17 | -27.36388 | 153.12102 | 18 ft | 29 kts | 30° |
| 2026-04-18 03:17 | -27.36240 | 153.12041 | 19 ft | 27 kts | 296° |
| 2026-04-18 03:17 | -27.36191 | 153.11886 | 23 ft | 9 kts | 213° |
| 2026-04-18 03:18 | -27.36240 | 153.11862 | 20 ft | 9 kts | 207° |
| 2026-04-18 03:18 | -27.36309 | 153.11822 | 22 ft | 36 kts | 207° |
| 2026-04-18 03:18 | -27.36975 | 153.11442 | 21 ft | 118 kts | 207° |
| 2026-04-18 03:18 | -27.37842 | 153.10948 | 50 ft | 157 kts | 202° |
| 2026-04-18 03:19 | -27.38804 | 153.10356 | 537 ft | 156 kts | 203° |
| 2026-04-18 03:19 | -27.39807 | 153.09785 | 824 ft | 171 kts | 201° |
| 2026-04-18 03:19 | -27.40890 | 153.09173 | 1087 ft | 181 kts | 226° |
| 2026-04-18 03:19 | -27.41282 | 153.07818 | 1308 ft | 194 kts | 277° |
| 2026-04-18 03:20 | -27.40884 | 153.06288 | 1435 ft | 218 kts | 301° |
| 2026-04-18 03:20 | -27.39687 | 153.05167 | 1718 ft | 238 kts | 345° |
| 2026-04-18 03:20 | -27.37983 | 153.05050 | 2099 ft | 256 kts | 9° |
| 2026-04-18 03:20 | -27.36207 | 153.05456 | 2848 ft | 263 kts | 17° |
| 2026-04-18 03:21 | -27.34431 | 153.06023 | 3714 ft | 267 kts | 17° |
| 2026-04-18 03:21 | -27.32620 | 153.06633 | 4504 ft | 275 kts | 15° |
| 2026-04-18 03:21 | -27.31399 | 153.07035 | 5065 ft | 278 kts | 13° |
| 2026-04-18 03:21 | -27.28869 | 153.07829 | 6142 ft | 285 kts | 12° |
| 2026-04-18 03:22 | -27.26937 | 153.08404 | 6904 ft | 290 kts | 11° |
| 2026-04-18 03:22 | -27.24960 | 153.08975 | 7644 ft | 296 kts | 11° |
| 2026-04-18 03:22 | -27.22973 | 153.09539 | 8379 ft | 301 kts | 10° |
| 2026-04-18 03:22 | -27.20922 | 153.10116 | 9114 ft | 306 kts | 10° |
| 2026-04-18 03:23 | -27.19515 | 153.10511 | 9615 ft | 310 kts | 10° |
| 2026-04-18 03:23 | -27.18118 | 153.10902 | 10061 ft | 315 kts | 10° |
| 2026-04-18 03:23 | -27.15163 | 153.11724 | 10439 ft | 342 kts | 10° |
| 2026-04-18 03:23 | -27.11966 | 153.12613 | 10622 ft | 372 kts | 11° |
| 2026-04-18 03:24 | -27.09387 | 153.13336 | 10799 ft | 390 kts | 11° |
| 2026-04-18 03:24 | -27.07633 | 153.13831 | 11117 ft | 395 kts | 11° |
| 2026-04-18 03:24 | -27.02266 | 153.15347 | 12398 ft | 401 kts | 11° |
| 2026-04-18 03:25 | -26.99552 | 153.16111 | 13018 ft | 403 kts | 11° |
| 2026-04-18 03:25 | -26.96823 | 153.16876 | 13621 ft | 406 kts | 11° |
| 2026-04-18 03:25 | -26.94074 | 153.17646 | 14172 ft | 409 kts | 11° |
| 2026-04-18 03:25 | -26.91300 | 153.18422 | 14688 ft | 412 kts | 11° |
| 2026-04-18 03:26 | -26.87561 | 153.19463 | 15357 ft | 416 kts | 11° |
| 2026-04-18 03:26 | -26.85691 | 153.19985 | 15692 ft | 418 kts | 10° |
| 2026-04-18 03:26 | -26.82858 | 153.20779 | 16172 ft | 421 kts | 10° |
| 2026-04-18 03:26 | -26.80001 | 153.21581 | 16668 ft | 424 kts | 10° |
| 2026-04-18 03:27 | -26.79035 | 153.21852 | 16839 ft | 426 kts | 10° |
| 2026-04-18 03:27 | -26.74227 | 153.23197 | 17678 ft | 431 kts | 9° |
| 2026-04-18 03:27 | -26.71284 | 153.23783 | 18186 ft | 429 kts | 0° |
| 2026-04-18 03:27 | -26.68314 | 153.23817 | 18630 ft | 426 kts | 350° |
| 2026-04-18 03:28 | -26.65402 | 153.23304 | 19096 ft | 421 kts | 340° |
| 2026-04-18 03:28 | -26.62603 | 153.22365 | 19576 ft | 420 kts | 336° |
| 2026-04-18 03:28 | -26.59840 | 153.21395 | 20059 ft | 422 kts | 336° |
| 2026-04-18 03:28 | -26.57032 | 153.20420 | 20539 ft | 424 kts | 336° |
| 2026-04-18 03:29 | -26.54205 | 153.19448 | 20977 ft | 425 kts | 336° |
| 2026-04-18 03:29 | -26.51374 | 153.18479 | 21418 ft | 427 kts | 336° |
| 2026-04-18 03:29 | -26.48532 | 153.17505 | 21846 ft | 428 kts | 336° |
| 2026-04-18 03:29 | -26.45679 | 153.16524 | 22262 ft | 429 kts | 336° |
| 2026-04-18 03:30 | -26.42818 | 153.15537 | 22674 ft | 431 kts | 335° |
| 2026-04-18 03:30 | -26.39950 | 153.14544 | 23076 ft | 432 kts | 335° |
| 2026-04-18 03:30 | -26.37074 | 153.13549 | 23479 ft | 433 kts | 335° |
| 2026-04-18 03:30 | -26.34184 | 153.12550 | 23813 ft | 435 kts | 335° |
| 2026-04-18 03:31 | -26.31290 | 153.11555 | 24136 ft | 436 kts | 334° |
| 2026-04-18 03:31 | -26.28474 | 153.10366 | 24445 ft | 429 kts | 327° |
| 2026-04-18 03:31 | -26.25896 | 153.08737 | 24728 ft | 422 kts | 318° |
| 2026-04-18 03:31 | -26.23536 | 153.06818 | 25050 ft | 420 kts | 316° |
| 2026-04-18 03:32 | -26.21189 | 153.04888 | 25423 ft | 420 kts | 316° |
| 2026-04-18 03:32 | -26.18836 | 153.02962 | 25853 ft | 418 kts | 316° |
| 2026-04-18 03:32 | -26.16492 | 153.01050 | 26286 ft | 416 kts | 315° |
| 2026-04-18 03:32 | -26.14163 | 152.99153 | 26716 ft | 415 kts | 315° |
| 2026-04-18 03:33 | -26.11834 | 152.97258 | 27168 ft | 413 kts | 315° |
| 2026-04-18 03:33 | -26.09522 | 152.95379 | 27588 ft | 412 kts | 315° |
| 2026-04-18 03:33 | -26.07204 | 152.93512 | 28018 ft | 410 kts | 315° |
| 2026-04-18 03:33 | -26.04923 | 152.91682 | 28450 ft | 409 kts | 315° |
| 2026-04-18 03:34 | -26.02622 | 152.89839 | 28898 ft | 407 kts | 315° |
| 2026-04-18 03:34 | -26.00326 | 152.88002 | 29339 ft | 406 kts | 314° |
| 2026-04-18 03:34 | -25.98036 | 152.86171 | 29811 ft | 404 kts | 314° |
| 2026-04-18 03:34 | -25.95763 | 152.84350 | 30245 ft | 402 kts | 314° |
| 2026-04-18 03:35 | -25.93500 | 152.82534 | 30667 ft | 400 kts | 312° |
| 2026-04-18 03:35 | -25.91250 | 152.80729 | 30982 ft | 399 kts | 313° |
| 2026-04-18 03:35 | -25.89000 | 152.78923 | 31351 ft | 398 kts | 313° |
| 2026-04-18 03:35 | -25.86762 | 152.77134 | 31740 ft | 396 kts | 313° |
| 2026-04-18 03:36 | -25.84525 | 152.75345 | 31939 ft | 395 kts | 313° |
| 2026-04-18 03:36 | -25.82275 | 152.73543 | 31983 ft | 402 kts | 313° |
| 2026-04-18 03:36 | -25.77668 | 152.69848 | 31982 ft | 413 kts | 314° |
| 2026-04-18 03:37 | -25.72987 | 152.66125 | 31980 ft | 414 kts | 314° |
| 2026-04-18 03:37 | -25.68296 | 152.62397 | 31977 ft | 414 kts | 314° |
| 2026-04-18 03:38 | -25.63639 | 152.58690 | 31976 ft | 414 kts | 314° |
| 2026-04-18 03:38 | -25.58953 | 152.54963 | 31942 ft | 414 kts | 314° |
| 2026-04-18 03:39 | -25.54267 | 152.51236 | 31939 ft | 415 kts | 314° |
| 2026-04-18 03:39 | -25.49566 | 152.47498 | 31949 ft | 417 kts | 314° |
| 2026-04-18 03:40 | -25.44847 | 152.43750 | 31955 ft | 417 kts | 314° |
| 2026-04-18 03:40 | -25.40121 | 152.40005 | 31954 ft | 418 kts | 314° |
| 2026-04-18 03:41 | -25.35384 | 152.36265 | 31960 ft | 418 kts | 314° |
| 2026-04-18 03:41 | -25.30649 | 152.32515 | 31962 ft | 418 kts | 314° |
| 2026-04-18 03:42 | -25.25920 | 152.28774 | 31930 ft | 418 kts | 315° |
| 2026-04-18 03:42 | -25.21182 | 152.25035 | 31940 ft | 419 kts | 315° |
| 2026-04-18 03:43 | -25.16432 | 152.21287 | 31949 ft | 420 kts | 315° |
| 2026-04-18 03:43 | -25.11671 | 152.17539 | 31953 ft | 420 kts | 315° |
| 2026-04-18 03:44 | -25.06945 | 152.13815 | 31960 ft | 421 kts | 315° |
| 2026-04-18 03:44 | -25.02173 | 152.10066 | 31963 ft | 421 kts | 315° |
| 2026-04-18 03:45 | -24.97402 | 152.06327 | 31973 ft | 421 kts | 315° |
| 2026-04-18 03:45 | -24.92629 | 152.02588 | 31964 ft | 421 kts | 315° |
| 2026-04-18 03:46 | -24.87852 | 151.98850 | 31964 ft | 421 kts | 315° |
| 2026-04-18 03:46 | -24.83071 | 151.95116 | 31966 ft | 421 kts | 315° |
| 2026-04-18 03:47 | -24.78292 | 151.91390 | 31955 ft | 421 kts | 315° |
| 2026-04-18 03:47 | -24.73507 | 151.87668 | 31957 ft | 422 kts | 315° |
| 2026-04-18 03:48 | -24.68722 | 151.83935 | 31964 ft | 421 kts | 315° |
| 2026-04-18 03:48 | -24.63966 | 151.80230 | 31970 ft | 422 kts | 315° |
| 2026-04-18 03:49 | -24.59169 | 151.76504 | 31938 ft | 422 kts | 315° |
| 2026-04-18 03:49 | -24.54364 | 151.72774 | 31945 ft | 423 kts | 315° |
| 2026-04-18 03:50 | -24.49550 | 151.69033 | 31950 ft | 424 kts | 315° |
| 2026-04-18 03:50 | -24.44735 | 151.65303 | 31959 ft | 424 kts | 315° |
| 2026-04-18 03:51 | -24.39912 | 151.61563 | 31951 ft | 424 kts | 316° |
| 2026-04-18 03:51 | -24.35109 | 151.57847 | 31961 ft | 425 kts | 315° |
| 2026-04-18 03:52 | -24.30272 | 151.54103 | 31966 ft | 425 kts | 315° |
| 2026-04-18 03:52 | -24.25431 | 151.50366 | 31945 ft | 426 kts | 316° |
| 2026-04-18 03:53 | -24.20584 | 151.46619 | 31950 ft | 427 kts | 316° |
| 2026-04-18 03:53 | -24.15737 | 151.42882 | 31954 ft | 427 kts | 316° |
| 2026-04-18 03:54 | -24.10876 | 151.39141 | 31957 ft | 427 kts | 316° |
| 2026-04-18 03:54 | -24.06015 | 151.35401 | 31965 ft | 427 kts | 316° |
| 2026-04-18 03:55 | -24.01188 | 151.31692 | 31955 ft | 427 kts | 316° |
| 2026-04-18 03:55 | -23.96325 | 151.27956 | 31953 ft | 427 kts | 316° |
| 2026-04-18 03:56 | -23.91449 | 151.24210 | 31956 ft | 429 kts | 316° |
| 2026-04-18 03:56 | -23.86558 | 151.20462 | 31957 ft | 430 kts | 317° |
| 2026-04-18 03:57 | -23.78817 | 151.15314 | 31968 ft | 436 kts | 322° |
| 2026-04-18 03:58 | -23.73524 | 151.12063 | 31968 ft | 436 kts | 322° |
| 2026-04-18 03:58 | -23.68277 | 151.08751 | 31970 ft | 435 kts | 321° |
| 2026-04-18 03:59 | -23.63062 | 151.05392 | 31951 ft | 435 kts | 321° |
| 2026-04-18 03:59 | -23.57837 | 151.02032 | 31948 ft | 436 kts | 321° |
| 2026-04-18 04:00 | -23.52630 | 150.98696 | 31963 ft | 437 kts | 321° |
| 2026-04-18 04:00 | -23.47380 | 150.95345 | 31966 ft | 438 kts | 321° |
| 2026-04-18 04:01 | -23.42113 | 150.91981 | 31976 ft | 438 kts | 321° |
| 2026-04-18 04:01 | -23.36858 | 150.88629 | 31977 ft | 438 kts | 321° |
| 2026-04-18 04:02 | -23.31593 | 150.85271 | 31975 ft | 438 kts | 321° |
| 2026-04-18 04:02 | -23.26335 | 150.81922 | 31961 ft | 439 kts | 322° |
| 2026-04-18 04:03 | -23.21105 | 150.78587 | 31965 ft | 439 kts | 322° |
| 2026-04-18 04:03 | -23.15816 | 150.75225 | 31975 ft | 440 kts | 322° |
| 2026-04-18 04:04 | -23.10532 | 150.71878 | 31965 ft | 440 kts | 322° |
| 2026-04-18 04:04 | -23.05242 | 150.68527 | 31970 ft | 440 kts | 322° |
| 2026-04-18 04:05 | -22.99948 | 150.65170 | 31977 ft | 440 kts | 322° |
| 2026-04-18 04:05 | -22.94660 | 150.61808 | 31955 ft | 441 kts | 322° |
| 2026-04-18 04:06 | -22.89357 | 150.58445 | 31964 ft | 442 kts | 322° |
| 2026-04-18 04:06 | -22.84066 | 150.55106 | 31969 ft | 443 kts | 322° |
| 2026-04-18 04:07 | -22.78746 | 150.51747 | 31977 ft | 443 kts | 322° |
| 2026-04-18 04:07 | -22.73422 | 150.48384 | 31980 ft | 443 kts | 322° |
| 2026-04-18 04:08 | -22.68093 | 150.45021 | 31974 ft | 443 kts | 322° |
| 2026-04-18 04:08 | -22.62756 | 150.41658 | 31963 ft | 444 kts | 323° |
| 2026-04-18 04:09 | -22.57405 | 150.38295 | 31968 ft | 445 kts | 323° |
| 2026-04-18 04:09 | -22.52046 | 150.34931 | 31973 ft | 445 kts | 322° |
| 2026-04-18 04:10 | -22.46680 | 150.31557 | 31978 ft | 446 kts | 323° |
| 2026-04-18 04:10 | -22.41317 | 150.28187 | 31982 ft | 446 kts | 323° |
| 2026-04-18 04:11 | -22.35986 | 150.24842 | 31989 ft | 446 kts | 323° |
| 2026-04-18 04:11 | -22.30609 | 150.21476 | 31984 ft | 447 kts | 323° |
| 2026-04-18 04:12 | -22.25420 | 150.17860 | 32000 ft | 439 kts | 314° |
| 2026-04-18 04:12 | -22.20802 | 150.13554 | 31749 ft | 439 kts | 313° |
| 2026-04-18 04:12 | -22.18491 | 150.11400 | 31510 ft | 440 kts | 313° |
| 2026-04-18 04:13 | -22.16164 | 150.09242 | 31272 ft | 440 kts | 314° |
| 2026-04-18 04:13 | -22.13837 | 150.07092 | 31039 ft | 441 kts | 314° |
| 2026-04-18 04:13 | -22.11494 | 150.04930 | 30806 ft | 442 kts | 314° |
| 2026-04-18 04:13 | -22.09949 | 150.03504 | 30655 ft | 443 kts | 314° |
| 2026-04-18 04:14 | -22.07606 | 150.01341 | 30179 ft | 443 kts | 314° |
| 2026-04-18 04:14 | -22.05245 | 149.99154 | 29038 ft | 449 kts | 314° |
| 2026-04-18 04:14 | -22.02868 | 149.96951 | 28021 ft | 452 kts | 314° |
| 2026-04-18 04:14 | -22.00481 | 149.94745 | 26990 ft | 454 kts | 315° |
| 2026-04-18 04:15 | -21.98068 | 149.92519 | 25847 ft | 459 kts | 315° |
| 2026-04-18 04:15 | -21.95636 | 149.90275 | 24707 ft | 462 kts | 315° |
| 2026-04-18 04:15 | -21.93218 | 149.88049 | 23633 ft | 451 kts | 315° |
| 2026-04-18 04:15 | -21.90870 | 149.85896 | 22421 ft | 437 kts | 315° |
| 2026-04-18 04:16 | -21.88583 | 149.83800 | 21278 ft | 425 kts | 315° |
| 2026-04-18 04:16 | -21.86364 | 149.81762 | 20207 ft | 414 kts | 315° |
| 2026-04-18 04:16 | -21.84194 | 149.79767 | 19559 ft | 409 kts | 315° |
| 2026-04-18 04:16 | -21.82027 | 149.77771 | 18841 ft | 409 kts | 316° |
| 2026-04-18 04:17 | -21.79867 | 149.75781 | 18023 ft | 406 kts | 316° |
| 2026-04-18 04:17 | -21.77731 | 149.73811 | 17208 ft | 403 kts | 316° |
| 2026-04-18 04:18 | -21.71161 | 149.67763 | 15686 ft | 396 kts | 316° |
| 2026-04-18 04:18 | -21.69082 | 149.65857 | 14949 ft | 398 kts | 316° |
| 2026-04-18 04:18 | -21.66973 | 149.63927 | 14214 ft | 398 kts | 316° |
| 2026-04-18 04:18 | -21.64867 | 149.61999 | 13466 ft | 397 kts | 316° |
| 2026-04-18 04:19 | -21.62733 | 149.60131 | 12750 ft | 396 kts | 322° |
| 2026-04-18 04:19 | -21.60445 | 149.58486 | 12074 ft | 393 kts | 324° |
| 2026-04-18 04:19 | -21.58172 | 149.56869 | 11417 ft | 390 kts | 324° |
| 2026-04-18 04:19 | -21.55953 | 149.55294 | 11220 ft | 373 kts | 324° |
| 2026-04-18 04:20 | -21.53832 | 149.53790 | 11096 ft | 357 kts | 324° |
| 2026-04-18 04:20 | -21.51808 | 149.52356 | 10978 ft | 342 kts | 324° |
| 2026-04-18 04:20 | -21.49854 | 149.50971 | 10849 ft | 329 kts | 324° |
| 2026-04-18 04:20 | -21.47976 | 149.49638 | 10744 ft | 318 kts | 324° |
| 2026-04-18 04:21 | -21.46165 | 149.48353 | 10568 ft | 306 kts | 324° |
| 2026-04-18 04:21 | -21.44414 | 149.47111 | 10235 ft | 296 kts | 324° |
| 2026-04-18 04:21 | -21.42690 | 149.45885 | 10003 ft | 298 kts | 324° |
| 2026-04-18 04:21 | -21.40983 | 149.44670 | 9864 ft | 298 kts | 324° |
| 2026-04-18 04:22 | -21.39252 | 149.43440 | 9723 ft | 298 kts | 324° |
| 2026-04-18 04:22 | -21.37529 | 149.42218 | 9397 ft | 296 kts | 325° |
| 2026-04-18 04:22 | -21.35815 | 149.41005 | 9161 ft | 293 kts | 325° |
| 2026-04-18 04:22 | -21.34098 | 149.39791 | 8811 ft | 298 kts | 325° |
| 2026-04-18 04:23 | -21.32354 | 149.38556 | 8413 ft | 300 kts | 326° |
| 2026-04-18 04:23 | -21.30626 | 149.37331 | 8084 ft | 295 kts | 326° |
| 2026-04-18 04:23 | -21.28935 | 149.36084 | 7522 ft | 293 kts | 324° |
| 2026-04-18 04:23 | -21.27296 | 149.34815 | 6995 ft | 290 kts | 324° |
| 2026-04-18 04:24 | -21.25674 | 149.33539 | 6445 ft | 288 kts | 324° |
| 2026-04-18 04:24 | -21.24062 | 149.32267 | 5870 ft | 287 kts | 324° |
| 2026-04-18 04:24 | -21.22454 | 149.31003 | 5314 ft | 286 kts | 324° |
| 2026-04-18 04:24 | -21.20855 | 149.29753 | 4820 ft | 284 kts | 324° |
| 2026-04-18 04:25 | -21.19259 | 149.28508 | 4320 ft | 282 kts | 324° |
| 2026-04-18 04:25 | -21.17679 | 149.27279 | 3838 ft | 280 kts | 324° |
| 2026-04-18 04:25 | -21.16125 | 149.26036 | 3364 ft | 277 kts | 318° |
| 2026-04-18 04:25 | -21.14869 | 149.24501 | 2875 ft | 272 kts | 301° |
| 2026-04-18 04:26 | -21.13947 | 149.22752 | 2375 ft | 268 kts | 300° |
| 2026-04-18 04:26 | -21.12913 | 149.21107 | 1877 ft | 260 kts | 304° |
| 2026-04-18 04:26 | -21.11892 | 149.19591 | 1490 ft | 242 kts | 306° |
| 2026-04-18 04:26 | -21.10929 | 149.18192 | 1146 ft | 222 kts | 301° |
| 2026-04-18 04:27 | -21.10378 | 149.16737 | 1053 ft | 197 kts | 275° |
| 2026-04-18 04:27 | -21.10536 | 149.15435 | 1348 ft | 164 kts | 242° |
| 2026-04-18 04:27 | -21.11327 | 149.14693 | 1490 ft | 150 kts | 191° |
| 2026-04-18 04:27 | -21.12294 | 149.14913 | 1300 ft | 144 kts | 147° |
| 2026-04-18 04:28 | -21.13106 | 149.15548 | 927 ft | 142 kts | 145° |
| 2026-04-18 04:28 | -21.13921 | 149.16143 | 795 ft | 142 kts | 146° |
| 2026-04-18 04:28 | -21.14768 | 149.16697 | 509 ft | 143 kts | 147° |
| 2026-04-18 04:28 | -21.15596 | 149.17262 | 249 ft | 141 kts | 146° |
| 2026-04-18 04:29 | -21.16426 | 149.17819 | 58 ft | 140 kts | 146° |
| 2026-04-18 04:29 | -21.17149 | 149.18306 | 28 ft | 101 kts | 148° |
| 2026-04-18 04:29 | -21.17561 | 149.18586 | 24 ft | 52 kts | 147° |
| 2026-04-18 04:29 | -21.17770 | 149.18744 | 26 ft | 17 kts | 104° |
| 2026-04-18 04:30 | -21.17789 | 149.18768 | 28 ft | 2 kts | 269° |
| 2026-04-18 04:30 | -21.17755 | 149.18723 | 24 ft | 18 kts | 318° |
| 2026-04-18 04:30 | -21.17598 | 149.18609 | 24 ft | 29 kts | 329° |
| 2026-04-18 04:30 | -21.17489 | 149.18505 | 24 ft | 14 kts | 240° |
| 2026-04-18 04:31 | -21.17544 | 149.18432 | 23 ft | 13 kts | 241° |
| 2026-04-18 04:31 | -21.17591 | 149.18342 | 29 ft | 13 kts | 258° |
| 2026-04-18 04:31 | -21.17572 | 149.18252 | 27 ft | 5 kts | 287° |
| 2026-04-18 04:31 | -21.17570 | 149.18245 | 26 ft | 0 kts | 289° |